Latest Coastal Weather Observations for Marion Reef

IDQ60701

Issued at 8:51 am EST Sunday 31 May 2015 (issued every 10 minutes, with the page automatically refreshed every 10 minutes)

About coastal observations | Map of coastal stations | Coastal observations for QLD | Marine services | Other Formats
Station Details ID: 200704 Name: MARION REEF Lat: -19.10 Lon: 152.39 Height: 2.0 m
Data from the previous 72 hours. | See also: Recent months for locations in Queensland
Date/Time
EST
Temp

°C
Wind Pressure Rain
since 9am
mm
Weather Cloud Vis
km
Sea
Height
m
Swell
Dir
 
Speed
knots
Gust
knots
hPa Trend Height
m
Period
s
Dir
31/08:30am 24.8 E 15 17 1018.1 - - - - - - - - -
31/08:00am 24.7 E 15 16 1017.9 - - - - - - - - -
31/07:30am 24.7 ESE 15 17 1017.8 - - - - - - - - -
31/07:00am 24.7 E 15 17 1017.4 - - - - - - - - -
31/06:30am 24.6 ESE 15 18 1017.2 - - - - - - - - -
31/06:00am 24.5 ESE 16 18 1016.7 - - - - - - - - -
31/05:30am 24.8 E 16 18 1016.3 - - - - - - - - -
31/05:00am 24.6 ESE 17 20 1015.9 - - - - - - - - -
31/04:30am 24.4 ESE 17 19 1015.7 - - - - - - - - -
31/04:00am 24.7 E 16 19 1015.7 - - - - - - - - -
31/03:30am 24.6 ESE 16 19 1016.0 - - - - - - - - -
31/03:00am 24.7 ESE 17 19 1015.8 - - - - - - - - -
31/02:30am 24.5 ESE 18 20 1016.3 - - - - - - - - -
31/02:00am 24.8 ESE 17 20 1016.3 - - - - - - - - -
31/01:30am 25.0 ESE 17 19 1016.6 - - - - - - - - -
31/01:00am 24.6 E 17 19 1016.7 - - - - - - - - -
31/12:30am 24.8 E 17 19 1017.1 - - - - - - - - -
31/12:00am 24.8 E 17 20 1017.3 - - - - - - - - -
 
Date/Time
EST
Temp

°C
Wind Pressure Rain
since 9am
mm
Weather Cloud Vis
km
Sea
Height
m
Swell
Dir
 
Speed
knots
Gust
knots
hPa Trend Height
m
Period
s
Dir
30/11:30pm 24.8 E 18 21 1017.3 - - - - - - - - -
30/11:00pm 24.9 ESE 18 21 1017.3 - - - - - - - - -
30/10:30pm 25.0 E 17 19 1018.0 - - - - - - - - -
30/10:00pm 24.7 E 17 19 1017.9 - - - - - - - - -
30/09:30pm 25.0 E 18 21 1017.9 - - - - - - - - -
30/09:00pm 24.9 ESE 17 19 1017.9 - - - - - - - - -
30/08:30pm 25.0 E 16 19 1018.0 - - - - - - - - -
30/08:00pm 25.0 E 16 17 1018.0 - - - - - - - - -
30/07:30pm 25.2 ESE 16 18 1018.1 - - - - - - - - -
30/07:00pm 25.1 ESE 15 17 1017.7 - - - - - - - - -
30/06:30pm 25.2 ESE 15 17 1017.7 - - - - - - - - -
30/06:00pm 25.1 ESE 16 19 1017.1 - - - - - - - - -
30/05:30pm 24.9 ESE 16 18 1017.1 - - - - - - - - -
30/05:00pm 25.1 ESE 16 19 1016.8 - - - - - - - - -
30/04:30pm 25.0 ESE 15 17 1016.8 - - - - - - - - -
30/04:00pm 24.9 ESE 15 18 1016.5 - - - - - - - - -
30/03:30pm 25.2 E 16 18 1016.2 - - - - - - - - -
30/03:00pm 25.1 ESE 17 19 1015.9 - - - - - - - - -
30/02:30pm 25.0 ESE 17 20 1016.1 - - - - - - - - -
30/02:00pm 25.1 ESE 18 20 1016.2 - - - - - - - - -
30/01:30pm 25.0 ESE 17 21 1016.7 - - - - - - - - -
30/01:00pm 24.8 SE 17 19 1016.9 - - - - - - - - -
30/12:30pm 25.1 ESE 18 20 1017.2 - - - - - - - - -
30/12:00pm 25.0 ESE 17 19 1017.6 - - - - - - - - -
30/11:30am 25.1 ESE 17 20 1018.3 - - - - - - - - -
30/11:00am 25.1 ESE 18 20 1018.9 - - - - - - - - -
30/10:30am 25.1 ESE 17 20 1019.3 - - - - - - - - -
30/10:00am 24.9 ESE 15 16 1019.5 - - - - - - - - -
30/09:30am 25.2 ESE 15 17 1019.9 - - - - - - - - -
30/09:00am 25.1 ESE 15 17 1020.1 - - - - - - - - -
30/08:30am 25.0 ESE 15 17 1020.1 - - - - - - - - -
30/08:00am 25.3 ESE 16 19 1019.6 - - - - - - - - -
30/07:30am 25.1 ESE 16 19 1019.4 - - - - - - - - -
30/07:00am 25.3 ESE 16 19 1019.0 - - - - - - - - -
30/06:30am 24.7 ESE 16 19 1018.9 - - - - - - - - -
30/06:00am 24.4 ESE 16 19 1018.5 - - - - - - - - -
30/05:30am 24.5 ESE 17 19 1018.2 - - - - - - - - -
30/05:00am 24.3 ESE 17 19 1017.7 - - - - - - - - -
30/04:30am 24.9 ESE 18 20 1017.6 - - - - - - - - -
30/04:00am 24.5 ESE 17 21 1017.6 - - - - - - - - -
30/03:30am 24.6 ESE 18 21 1017.9 - - - - - - - - -
30/03:00am 24.5 ESE 19 22 1018.0 - - - - - - - - -
30/02:30am 24.4 ESE 20 22 1018.2 - - - - - - - - -
30/02:00am 24.8 E 19 21 1018.3 - - - - - - - - -
30/01:30am 24.8 ESE 19 22 1018.8 - - - - - - - - -
30/01:00am 24.5 ESE 20 23 1019.0 - - - - - - - - -
30/12:30am 25.1 ESE 20 23 1019.2 - - - - - - - - -
30/12:00am 24.8 ESE 21 23 1019.2 - - - - - - - - -
 
Date/Time
EST
Temp

°C
Wind Pressure Rain
since 9am
mm
Weather Cloud Vis
km
Sea
Height
m
Swell
Dir
 
Speed
knots
Gust
knots
hPa Trend Height
m
Period
s
Dir
29/11:30pm 24.9 ESE 21 24 1019.6 - - - - - - - - -
29/11:00pm 25.0 ESE 21 24 1019.7 - - - - - - - - -
29/10:30pm 25.1 ESE 20 23 1019.9 - - - - - - - - -
29/10:00pm 24.6 ESE 19 21 1020.0 - - - - - - - - -
29/09:30pm 24.5 ESE 23 29 1020.0 - - - - - - - - -
29/09:00pm 24.5 ESE 21 25 1019.7 - - - - - - - - -
29/08:30pm 25.0 ESE 20 25 1019.8 - - - - - - - - -
29/08:00pm 24.8 ESE 21 24 1019.5 - - - - - - - - -
29/07:30pm 25.2 ESE 19 23 1019.3 - - - - - - - - -
29/07:00pm 25.0 ESE 21 24 1018.9 - - - - - - - - -
29/06:30pm 24.7 ESE 18 20 1018.7 - - - - - - - - -
29/06:00pm 24.7 SE 17 20 1018.3 - - - - - - - - -
29/05:30pm 24.5 ESE 17 20 1018.0 - - - - - - - - -
29/05:00pm 24.9 ESE 19 22 1017.7 - - - - - - - - -
29/04:30pm 24.8 ESE 21 26 1017.5 - - - - - - - - -
29/04:00pm 25.0 ESE 19 22 1017.2 - - - - - - - - -
29/03:30pm 24.8 ESE 18 21 1017.2 - - - - - - - - -
29/03:00pm 25.2 ESE 18 21 1017.0 - - - - - - - - -
29/02:30pm 25.0 ESE 20 23 1017.2 - - - - - - - - -
29/02:00pm 24.9 ESE 19 22 1017.3 - - - - - - - - -
29/01:30pm 24.7 E 19 22 1017.5 - - - - - - - - -
29/01:00pm 24.2 ESE 22 26 1017.6 - - - - - - - - -
29/12:30pm 24.9 E 20 24 1018.1 - - - - - - - - -
29/12:00pm 24.9 ESE 20 23 1018.3 - - - - - - - - -
29/11:30am 25.1 ESE 20 23 1018.8 - - - - - - - - -
29/11:00am 24.8 ESE 18 21 1019.0 - - - - - - - - -
29/10:30am 24.5 ESE 21 29 1019.5 - - - - - - - - -
29/10:00am 25.0 ESE 20 23 1019.7 - - - - - - - - -
29/09:30am 25.2 ESE 20 22 1020.0 - - - - - - - - -
29/09:00am 25.2 ESE 20 22 1019.8 - - - - - - - - -
29/08:30am 25.3 ESE 18 21 1019.9 - - - - - - - - -
29/08:00am 25.0 ESE 20 23 1019.6 - - - - - - - - -
29/07:30am 24.7 ESE 17 21 1019.6 - - - - - - - - -
29/07:00am 24.9 ESE 18 21 1019.3 - - - - - - - - -
29/06:30am 24.6 ESE 18 22 1018.9 - - - - - - - - -
29/06:00am 25.0 ESE 19 22 1018.4 - - - - - - - - -
29/05:30am 24.9 ESE 19 21 1018.2 - - - - - - - - -
29/05:00am 24.8 ESE 19 22 1017.8 - - - - - - - - -
29/04:30am 24.7 ESE 19 23 1018.1 - - - - - - - - -
29/04:00am 24.6 ESE 17 19 1018.0 - - - - - - - - -
29/03:30am 24.6 ESE 18 21 1018.2 - - - - - - - - -
29/03:00am 24.6 ESE 19 21 1018.0 - - - - - - - - -
29/02:30am 24.5 ESE 19 22 1018.3 - - - - - - - - -
29/02:00am 24.8 ESE 19 23 1018.2 - - - - - - - - -
29/01:30am 24.1 SE 21 24 1018.6 - - - - - - - - -
29/01:00am 25.0 ESE 18 21 1018.7 - - - - - - - - -
29/12:30am 24.9 ESE 17 20 1019.1 - - - - - - - - -
29/12:00am 24.8 SE 17 19 1019.1 - - - - - - - - -
 
Date/Time
EST
Temp

°C
Wind Pressure Rain
since 9am
mm
Weather Cloud Vis
km
Sea
Height
m
Swell
Dir
 
Speed
knots
Gust
knots
hPa Trend Height
m
Period
s
Dir
28/11:30pm 24.9 SE 16 18 1019.3 - - - - - - - - -
28/11:00pm 24.6 ESE 17 19 1019.4 - - - - - - - - -
28/10:30pm 24.7 ESE 17 19 1019.6 - - - - - - - - -
28/10:00pm 24.7 ESE 17 18 1019.6 - - - - - - - - -
28/09:30pm 24.8 ESE 16 19 1019.8 - - - - - - - - -
28/09:00pm 24.8 ESE 16 19 1019.7 - - - - - - - - -
28/08:30pm 24.7 ESE 18 22 1019.7 - - - - - - - - -
28/08:00pm 24.7 ESE 19 22 1019.3 - - - - - - - - -
28/07:30pm 25.2 SE 17 20 1019.2 - - - - - - - - -
28/07:00pm 25.0 SE 18 21 1018.8 - - - - - - - - -
28/06:30pm 24.7 SE 18 21 1018.6 - - - - - - - - -
28/06:00pm 24.6 SE 18 20 1018.4 - - - - - - - - -
28/05:30pm 25.1 SE 17 21 1018.0 - - - - - - - - -
28/05:00pm 24.8 SE 19 22 1017.7 - - - - - - - - -
28/04:30pm 24.7 SE 18 21 1017.6 - - - - - - - - -
28/04:00pm 25.2 SE 18 21 1017.2 - - - - - - - - -
28/03:30pm 24.9 SE 17 20 1017.1 - - - - - - - - -
28/03:00pm 25.0 SE 17 20 1017.0 - - - - - - - - -
28/02:30pm 24.7 ESE 18 21 1017.0 - - - - - - - - -
28/02:00pm 24.7 SE 18 21 1016.9 - - - - - - - - -
28/01:30pm 25.1 SE 19 21 1017.1 - - - - - - - - -
28/01:00pm 25.2 ESE 18 21 1017.1 - - - - - - - - -
28/12:30pm 24.5 ESE 18 20 1017.4 - - - - - - - - -
28/12:00pm 24.9 ESE 18 21 1017.9 - - - - - - - - -
28/11:30am 24.8 ESE 18 20 1018.4 - - - - - - - - -
28/11:00am 25.0 ESE 17 20 1018.7 - - - - - - - - -
28/10:30am 24.9 ESE 18 20 1019.2 - - - - - - - - -
28/10:00am 24.5 ESE 18 21 1019.4 - - - - - - - - -
28/09:30am 24.8 ESE 18 20 1019.7 - - - - - - - - -
28/09:00am 24.4 E 16 22 1019.6 - - - - - - - - -
28/08:54am 23.5 E 20 29 1019.6 - - - - - - - - -

Other Formats:

Comma delimited format used in spreadsheet applications
http://www.bom.gov.au/fwo/IDQ60701/IDQ60701.94298.axf

JavaScript Object Notation format (JSON) in row-major order
http://www.bom.gov.au/fwo/IDQ60701/IDQ60701.94298.json